Knoxville, MD (21758)

12:07 AM EDT on August 25, 2016 (GMT -0400)
West Jefferson | | Change Station

Elev 489 ft 39.37 °N, 77.61 °W | Updated 30 seconds ago

Clear
Clear
66.2 °F
Feels Like 66.2 °F
N
0.0
Wind Variable Wind from SSE
Gusts 0.0 mph

Today
High -- | Low -- °F
--% Chance of Precip.
Yesterday
High -- | Low -- °F
Precip. -- in
Pressure 30.20 in
Visibility 10.0 miles
Clouds Clear
Dew Point 66 °F
Humidity 98%
Rainfall 0.00 in
Snow Depth Not available.
6:33 AM 7:51 PM
Waning Gibbous, 50% visible
METAR KFDK 250400Z AUTO 00000KT 10SM CLR 22/20 A3020 RMK AO2 LTG DSNT W
Pressure 30.20 in
Visibility 10.0 miles
Clouds Clear
Dew Point 66 °F
Humidity 98%
Rainfall 0.00 in
Snow Depth Not available.
6:33 AM 7:51 PM
Waning Gibbous, 50% visible
METAR KFDK 250400Z AUTO 00000KT 10SM CLR 22/20 A3020 RMK AO2 LTG DSNT W

10-Day Weather Forecast

Almanac

Astronomy

Aug. 25, 2016 Rise Set
Actual Time
Civil Twilight
Nautical Twilight
Astronomical Twilight
Moon
Length of Visible Light
Length of Day
Tomorrow will be .
, % of the Moon is Illuminated

Today's Extremes

State Highs State Lows

Community

WunderPhotos

Upload Photos

1,934,796 photos uploaded!

WunderBlog® & News

Nearby

Air Quality

  Air Quality AQ Index Pollutant
Not available.

Snow Depth

Station Depth Elevation

Earthquake Activity

City Distance Mag. Time & Date
Minimum magnitude displayed is 2.5.

Coastal Water Temperatures

Place Temperature

Stations

Nearby Weather Stations

Station Location Temp. Windchill Dew Point Humidity Wind Precip. Elev Updated Type
                   

Watches & Warnings

There are currently no watches in effect.